sensor_id;sensor_type;location;lat;lon;timestamp;temperature;humidity
4201;DHT22;2114;50.398;8.814;2022-11-20T00:04:09;2.50;99.90
4201;DHT22;2114;50.398;8.814;2022-11-20T00:09:10;2.50;99.90
4201;DHT22;2114;50.398;8.814;2022-11-20T00:14:11;2.50;99.90
4201;DHT22;2114;50.398;8.814;2022-11-20T00:19:11;2.40;99.90
4201;DHT22;2114;50.398;8.814;2022-11-20T00:24:12;2.40;99.90
4201;DHT22;2114;50.398;8.814;2022-11-20T00:29:13;2.30;99.90
4201;DHT22;2114;50.398;8.814;2022-11-20T00:34:13;2.30;99.90
4201;DHT22;2114;50.398;8.814;2022-11-20T00:39:14;2.30;99.90
4201;DHT22;2114;50.398;8.814;2022-11-20T00:44:14;2.20;99.90
4201;DHT22;2114;50.398;8.814;2022-11-20T00:49:15;2.20;99.90
4201;DHT22;2114;50.398;8.814;2022-11-20T00:54:16;2.20;99.90
4201;DHT22;2114;50.398;8.814;2022-11-20T00:59:16;2.20;99.90
4201;DHT22;2114;50.398;8.814;2022-11-20T01:04:17;2.20;99.90
4201;DHT22;2114;50.398;8.814;2022-11-20T01:09:17;2.20;99.90
4201;DHT22;2114;50.398;8.814;2022-11-20T01:14:19;2.20;99.90
4201;DHT22;2114;50.398;8.814;2022-11-20T01:19:22;2.20;99.90
4201;DHT22;2114;50.398;8.814;2022-11-20T01:24:23;2.10;99.90
4201;DHT22;2114;50.398;8.814;2022-11-20T01:29:24;2.10;99.90
4201;DHT22;2114;50.398;8.814;2022-11-20T01:34:25;2.10;99.90
4201;DHT22;2114;50.398;8.814;2022-11-20T01:39:26;2.00;99.90
4201;DHT22;2114;50.398;8.814;2022-11-20T01:44:58;2.00;99.90
4201;DHT22;2114;50.398;8.814;2022-11-20T01:50:16;2.00;99.90
4201;DHT22;2114;50.398;8.814;2022-11-20T01:55:22;2.00;99.90
4201;DHT22;2114;50.398;8.814;2022-11-20T02:00:24;2.00;99.90
4201;DHT22;2114;50.398;8.814;2022-11-20T02:05:49;2.00;99.90
4201;DHT22;2114;50.398;8.814;2022-11-20T02:10:50;2.00;99.90
4201;DHT22;2114;50.398;8.814;2022-11-20T02:15:51;2.00;99.90
4201;DHT22;2114;50.398;8.814;2022-11-20T02:21:03;2.00;99.90
4201;DHT22;2114;50.398;8.814;2022-11-20T02:26:10;2.00;99.90
4201;DHT22;2114;50.398;8.814;2022-11-20T02:31:12;2.00;99.90
4201;DHT22;2114;50.398;8.814;2022-11-20T02:36:15;2.00;99.90
4201;DHT22;2114;50.398;8.814;2022-11-20T02:41:16;2.00;99.90
4201;DHT22;2114;50.398;8.814;2022-11-20T02:46:16;2.00;99.90
4201;DHT22;2114;50.398;8.814;2022-11-20T02:51:17;2.10;99.90
4201;DHT22;2114;50.398;8.814;2022-11-20T02:56:18;2.10;99.90
4201;DHT22;2114;50.398;8.814;2022-11-20T03:01:18;2.10;99.90
4201;DHT22;2114;50.398;8.814;2022-11-20T03:06:19;2.10;99.90
4201;DHT22;2114;50.398;8.814;2022-11-20T03:11:20;2.10;99.90
4201;DHT22;2114;50.398;8.814;2022-11-20T03:16:22;2.10;99.90
4201;DHT22;2114;50.398;8.814;2022-11-20T03:21:22;2.10;99.90
4201;DHT22;2114;50.398;8.814;2022-11-20T03:26:25;2.10;99.90
4201;DHT22;2114;50.398;8.814;2022-11-20T03:31:29;2.20;99.90
4201;DHT22;2114;50.398;8.814;2022-11-20T03:36:30;2.20;99.90
4201;DHT22;2114;50.398;8.814;2022-11-20T03:41:35;2.20;99.90
4201;DHT22;2114;50.398;8.814;2022-11-20T03:46:36;2.20;99.90
4201;DHT22;2114;50.398;8.814;2022-11-20T03:51:37;2.20;99.90
4201;DHT22;2114;50.398;8.814;2022-11-20T03:56:38;2.20;99.90
4201;DHT22;2114;50.398;8.814;2022-11-20T04:01:39;2.20;99.90
4201;DHT22;2114;50.398;8.814;2022-11-20T04:06:40;2.20;99.90
4201;DHT22;2114;50.398;8.814;2022-11-20T04:11:41;2.20;99.90
4201;DHT22;2114;50.398;8.814;2022-11-20T04:16:42;2.20;99.90
4201;DHT22;2114;50.398;8.814;2022-11-20T04:21:43;2.20;99.90
4201;DHT22;2114;50.398;8.814;2022-11-20T04:26:44;2.20;99.90
4201;DHT22;2114;50.398;8.814;2022-11-20T04:31:46;2.20;99.90
4201;DHT22;2114;50.398;8.814;2022-11-20T04:36:46;2.20;99.90
4201;DHT22;2114;50.398;8.814;2022-11-20T04:41:47;2.20;99.90
4201;DHT22;2114;50.398;8.814;2022-11-20T04:46:47;2.20;99.90
4201;DHT22;2114;50.398;8.814;2022-11-20T04:51:48;2.20;99.90
4201;DHT22;2114;50.398;8.814;2022-11-20T04:56:49;2.20;99.90
4201;DHT22;2114;50.398;8.814;2022-11-20T05:01:49;2.30;99.90
4201;DHT22;2114;50.398;8.814;2022-11-20T05:06:50;2.30;99.90
4201;DHT22;2114;50.398;8.814;2022-11-20T05:11:51;2.20;99.90
4201;DHT22;2114;50.398;8.814;2022-11-20T05:16:51;2.20;99.90
4201;DHT22;2114;50.398;8.814;2022-11-20T05:21:52;2.20;99.90
4201;DHT22;2114;50.398;8.814;2022-11-20T05:26:52;2.20;99.90
4201;DHT22;2114;50.398;8.814;2022-11-20T05:31:53;2.20;99.90
4201;DHT22;2114;50.398;8.814;2022-11-20T05:36:53;2.20;99.90
4201;DHT22;2114;50.398;8.814;2022-11-20T05:41:54;2.30;99.90
4201;DHT22;2114;50.398;8.814;2022-11-20T05:47:13;2.30;99.90
4201;DHT22;2114;50.398;8.814;2022-11-20T05:52:14;2.20;99.90
4201;DHT22;2114;50.398;8.814;2022-11-20T05:57:15;2.20;99.90
4201;DHT22;2114;50.398;8.814;2022-11-20T06:02:15;2.20;99.90
4201;DHT22;2114;50.398;8.814;2022-11-20T06:07:16;2.20;99.90
4201;DHT22;2114;50.398;8.814;2022-11-20T06:12:17;2.20;99.90
4201;DHT22;2114;50.398;8.814;2022-11-20T06:17:17;2.20;99.90
4201;DHT22;2114;50.398;8.814;2022-11-20T06:22:18;2.20;99.90
4201;DHT22;2114;50.398;8.814;2022-11-20T06:27:19;2.20;99.90
4201;DHT22;2114;50.398;8.814;2022-11-20T06:32:19;2.20;99.90
4201;DHT22;2114;50.398;8.814;2022-11-20T06:37:20;2.20;99.90
4201;DHT22;2114;50.398;8.814;2022-11-20T06:42:20;2.20;99.90
4201;DHT22;2114;50.398;8.814;2022-11-20T06:47:21;2.20;99.90
4201;DHT22;2114;50.398;8.814;2022-11-20T06:52:22;2.20;99.90
4201;DHT22;2114;50.398;8.814;2022-11-20T06:57:22;2.30;99.90
4201;DHT22;2114;50.398;8.814;2022-11-20T07:02:23;2.30;99.90
4201;DHT22;2114;50.398;8.814;2022-11-20T07:07:23;2.20;99.90
4201;DHT22;2114;50.398;8.814;2022-11-20T07:12:24;2.20;99.90
4201;DHT22;2114;50.398;8.814;2022-11-20T07:17:24;2.20;99.90
4201;DHT22;2114;50.398;8.814;2022-11-20T07:22:25;2.20;99.90
4201;DHT22;2114;50.398;8.814;2022-11-20T07:27:25;2.30;99.90
4201;DHT22;2114;50.398;8.814;2022-11-20T07:32:26;2.30;99.90
4201;DHT22;2114;50.398;8.814;2022-11-20T07:37:27;2.30;99.90
4201;DHT22;2114;50.398;8.814;2022-11-20T07:42:28;2.30;99.90
4201;DHT22;2114;50.398;8.814;2022-11-20T07:47:28;2.40;99.90
4201;DHT22;2114;50.398;8.814;2022-11-20T07:52:29;2.40;99.90
4201;DHT22;2114;50.398;8.814;2022-11-20T07:57:29;2.40;99.90
4201;DHT22;2114;50.398;8.814;2022-11-20T08:02:30;2.40;99.90
4201;DHT22;2114;50.398;8.814;2022-11-20T08:07:36;2.40;99.90
4201;DHT22;2114;50.398;8.814;2022-11-20T08:12:44;2.40;99.90
4201;DHT22;2114;50.398;8.814;2022-11-20T08:18:05;2.50;99.90
4201;DHT22;2114;50.398;8.814;2022-11-20T08:23:07;2.60;99.90
4201;DHT22;2114;50.398;8.814;2022-11-20T08:28:09;2.60;99.90
4201;DHT22;2114;50.398;8.814;2022-11-20T08:33:10;2.70;99.90
4201;DHT22;2114;50.398;8.814;2022-11-20T08:38:10;2.70;99.90
4201;DHT22;2114;50.398;8.814;2022-11-20T08:43:11;2.80;99.90
4201;DHT22;2114;50.398;8.814;2022-11-20T08:48:11;2.90;99.90
4201;DHT22;2114;50.398;8.814;2022-11-20T08:53:12;3.00;99.90
4201;DHT22;2114;50.398;8.814;2022-11-20T08:58:40;3.10;99.90
4201;DHT22;2114;50.398;8.814;2022-11-20T09:03:41;3.20;99.90
4201;DHT22;2114;50.398;8.814;2022-11-20T09:08:57;3.20;99.90
4201;DHT22;2114;50.398;8.814;2022-11-20T09:13:58;3.30;99.90
4201;DHT22;2114;50.398;8.814;2022-11-20T09:18:58;3.40;99.90
4201;DHT22;2114;50.398;8.814;2022-11-20T09:23:59;3.50;99.90
4201;DHT22;2114;50.398;8.814;2022-11-20T09:29:00;3.50;99.90
4201;DHT22;2114;50.398;8.814;2022-11-20T09:34:00;3.60;99.90
4201;DHT22;2114;50.398;8.814;2022-11-20T09:39:01;3.60;99.90
4201;DHT22;2114;50.398;8.814;2022-11-20T09:54:56;4.00;99.90
4201;DHT22;2114;50.398;8.814;2022-11-20T10:00:00;4.50;99.90
4201;DHT22;2114;50.398;8.814;2022-11-20T10:05:18;4.60;99.90
4201;DHT22;2114;50.398;8.814;2022-11-20T10:10:34;5.00;99.90
4201;DHT22;2114;50.398;8.814;2022-11-20T10:20:54;5.40;99.90
4201;DHT22;2114;50.398;8.814;2022-11-20T10:31:09;5.60;99.90
4201;DHT22;2114;50.398;8.814;2022-11-20T10:41:17;5.70;99.90
4201;DHT22;2114;50.398;8.814;2022-11-20T10:46:33;5.60;99.90
4201;DHT22;2114;50.398;8.814;2022-11-20T10:56:52;5.60;99.90
4201;DHT22;2114;50.398;8.814;2022-11-20T11:01:52;5.50;99.90
4201;DHT22;2114;50.398;8.814;2022-11-20T11:06:56;5.50;99.90
4201;DHT22;2114;50.398;8.814;2022-11-20T11:11:59;5.50;99.90
4201;DHT22;2114;50.398;8.814;2022-11-20T11:16:59;5.50;99.90
4201;DHT22;2114;50.398;8.814;2022-11-20T11:22:01;5.50;99.90
4201;DHT22;2114;50.398;8.814;2022-11-20T11:27:12;5.60;99.90
4201;DHT22;2114;50.398;8.814;2022-11-20T11:32:15;5.60;99.90
4201;DHT22;2114;50.398;8.814;2022-11-20T11:37:21;5.60;99.90
4201;DHT22;2114;50.398;8.814;2022-11-20T11:42:22;5.60;99.90
4201;DHT22;2114;50.398;8.814;2022-11-20T11:47:30;5.70;99.90
4201;DHT22;2114;50.398;8.814;2022-11-20T11:52:38;5.70;99.90
4201;DHT22;2114;50.398;8.814;2022-11-20T12:03:04;5.70;99.90
4201;DHT22;2114;50.398;8.814;2022-11-20T12:13:37;5.70;99.90
4201;DHT22;2114;50.398;8.814;2022-11-20T12:18:41;5.70;99.90
4201;DHT22;2114;50.398;8.814;2022-11-20T12:39:36;5.70;99.90
4201;DHT22;2114;50.398;8.814;2022-11-20T12:45:05;5.60;99.90
4201;DHT22;2114;50.398;8.814;2022-11-20T12:50:23;5.60;99.90
4201;DHT22;2114;50.398;8.814;2022-11-20T12:55:47;5.60;99.90
4201;DHT22;2114;50.398;8.814;2022-11-20T13:01:00;5.50;99.90
4201;DHT22;2114;50.398;8.814;2022-11-20T13:06:10;5.40;99.90
4201;DHT22;2114;50.398;8.814;2022-11-20T13:17:04;5.40;99.90
4201;DHT22;2114;50.398;8.814;2022-11-20T13:22:08;5.30;99.90
4201;DHT22;2114;50.398;8.814;2022-11-20T13:32:17;5.30;99.90
4201;DHT22;2114;50.398;8.814;2022-11-20T13:37:32;5.30;99.90
4201;DHT22;2114;50.398;8.814;2022-11-20T13:42:37;5.20;99.90
4201;DHT22;2114;50.398;8.814;2022-11-20T13:47:51;5.20;99.90
4201;DHT22;2114;50.398;8.814;2022-11-20T13:53:02;5.20;99.90
4201;DHT22;2114;50.398;8.814;2022-11-20T14:03:43;5.10;99.90
4201;DHT22;2114;50.398;8.814;2022-11-20T14:08:49;5.10;99.90
4201;DHT22;2114;50.398;8.814;2022-11-20T14:14:17;5.00;99.90
4201;DHT22;2114;50.398;8.814;2022-11-20T14:24:23;4.90;99.90
4201;DHT22;2114;50.398;8.814;2022-11-20T14:29:34;4.80;99.90
4201;DHT22;2114;50.398;8.814;2022-11-20T14:34:40;4.80;99.90
4201;DHT22;2114;50.398;8.814;2022-11-20T14:39:47;4.80;99.90
4201;DHT22;2114;50.398;8.814;2022-11-20T14:44:49;4.70;99.90
4201;DHT22;2114;50.398;8.814;2022-11-20T14:49:51;4.70;99.90
4201;DHT22;2114;50.398;8.814;2022-11-20T14:54:57;4.70;99.90
4201;DHT22;2114;50.398;8.814;2022-11-20T15:05:05;4.50;99.90
4201;DHT22;2114;50.398;8.814;2022-11-20T15:10:09;4.50;99.90
4201;DHT22;2114;50.398;8.814;2022-11-20T15:15:12;4.50;99.90
4201;DHT22;2114;50.398;8.814;2022-11-20T15:20:16;4.50;99.90
4201;DHT22;2114;50.398;8.814;2022-11-20T15:25:18;4.50;99.90
4201;DHT22;2114;50.398;8.814;2022-11-20T15:30:20;4.50;99.90
4201;DHT22;2114;50.398;8.814;2022-11-20T15:35:20;4.50;99.90
4201;DHT22;2114;50.398;8.814;2022-11-20T15:40:21;4.50;99.90
4201;DHT22;2114;50.398;8.814;2022-11-20T15:45:21;4.40;99.90
4201;DHT22;2114;50.398;8.814;2022-11-20T15:50:29;4.40;99.90
4201;DHT22;2114;50.398;8.814;2022-11-20T15:55:33;4.40;99.90
4201;DHT22;2114;50.398;8.814;2022-11-20T16:00:34;4.40;99.90
4201;DHT22;2114;50.398;8.814;2022-11-20T16:05:35;4.40;99.90
4201;DHT22;2114;50.398;8.814;2022-11-20T16:10:35;4.40;99.90
4201;DHT22;2114;50.398;8.814;2022-11-20T16:15:36;4.40;99.90
4201;DHT22;2114;50.398;8.814;2022-11-20T16:20:53;4.40;99.90
4201;DHT22;2114;50.398;8.814;2022-11-20T16:25:54;4.40;99.90
4201;DHT22;2114;50.398;8.814;2022-11-20T16:30:54;4.30;99.90
4201;DHT22;2114;50.398;8.814;2022-11-20T16:35:55;4.40;99.90
4201;DHT22;2114;50.398;8.814;2022-11-20T16:41:00;4.40;99.90
4201;DHT22;2114;50.398;8.814;2022-11-20T16:46:03;4.40;99.90
4201;DHT22;2114;50.398;8.814;2022-11-20T16:51:08;4.40;99.90
4201;DHT22;2114;50.398;8.814;2022-11-20T16:56:13;4.40;99.90
4201;DHT22;2114;50.398;8.814;2022-11-20T17:01:17;4.40;99.90
4201;DHT22;2114;50.398;8.814;2022-11-20T17:06:22;4.40;99.90
4201;DHT22;2114;50.398;8.814;2022-11-20T17:11:24;4.40;99.90
4201;DHT22;2114;50.398;8.814;2022-11-20T17:16:24;4.40;99.90
4201;DHT22;2114;50.398;8.814;2022-11-20T17:21:26;4.40;99.90
4201;DHT22;2114;50.398;8.814;2022-11-20T17:26:26;4.40;99.90
4201;DHT22;2114;50.398;8.814;2022-11-20T17:31:29;4.50;99.90
4201;DHT22;2114;50.398;8.814;2022-11-20T17:36:31;4.50;99.90
4201;DHT22;2114;50.398;8.814;2022-11-20T17:41:32;4.50;99.90
4201;DHT22;2114;50.398;8.814;2022-11-20T17:46:33;4.40;99.90
4201;DHT22;2114;50.398;8.814;2022-11-20T17:51:34;4.50;99.90
4201;DHT22;2114;50.398;8.814;2022-11-20T17:56:35;4.50;99.90
4201;DHT22;2114;50.398;8.814;2022-11-20T18:01:54;4.50;99.90
4201;DHT22;2114;50.398;8.814;2022-11-20T18:06:54;4.50;99.90
4201;DHT22;2114;50.398;8.814;2022-11-20T18:11:55;4.50;99.90
4201;DHT22;2114;50.398;8.814;2022-11-20T18:17:06;4.50;99.90
4201;DHT22;2114;50.398;8.814;2022-11-20T18:22:11;4.50;99.90
4201;DHT22;2114;50.398;8.814;2022-11-20T18:27:17;4.60;99.90
4201;DHT22;2114;50.398;8.814;2022-11-20T18:32:20;4.50;99.90
4201;DHT22;2114;50.398;8.814;2022-11-20T18:37:21;4.60;99.90
4201;DHT22;2114;50.398;8.814;2022-11-20T18:42:21;4.50;99.90
4201;DHT22;2114;50.398;8.814;2022-11-20T18:47:41;4.50;99.90
4201;DHT22;2114;50.398;8.814;2022-11-20T18:52:42;4.60;99.90
4201;DHT22;2114;50.398;8.814;2022-11-20T18:57:46;4.60;99.90
4201;DHT22;2114;50.398;8.814;2022-11-20T19:02:46;4.50;99.90
4201;DHT22;2114;50.398;8.814;2022-11-20T19:07:47;4.60;99.90
4201;DHT22;2114;50.398;8.814;2022-11-20T19:12:48;4.60;99.90
4201;DHT22;2114;50.398;8.814;2022-11-20T19:17:48;4.60;99.90
4201;DHT22;2114;50.398;8.814;2022-11-20T19:22:49;4.60;99.90
4201;DHT22;2114;50.398;8.814;2022-11-20T19:27:50;4.60;99.90
4201;DHT22;2114;50.398;8.814;2022-11-20T19:32:51;4.60;99.90
4201;DHT22;2114;50.398;8.814;2022-11-20T19:37:51;4.60;99.90
4201;DHT22;2114;50.398;8.814;2022-11-20T19:42:52;4.60;99.90
4201;DHT22;2114;50.398;8.814;2022-11-20T19:47:52;4.70;99.90
4201;DHT22;2114;50.398;8.814;2022-11-20T19:52:53;4.70;99.90
4201;DHT22;2114;50.398;8.814;2022-11-20T19:57:53;4.70;99.90
4201;DHT22;2114;50.398;8.814;2022-11-20T20:02:54;4.70;99.90
4201;DHT22;2114;50.398;8.814;2022-11-20T20:07:55;4.70;99.90
4201;DHT22;2114;50.398;8.814;2022-11-20T20:12:55;4.80;99.90
4201;DHT22;2114;50.398;8.814;2022-11-20T20:17:56;4.80;99.90
4201;DHT22;2114;50.398;8.814;2022-11-20T20:22:57;4.80;99.90
4201;DHT22;2114;50.398;8.814;2022-11-20T20:27:58;4.80;99.90
4201;DHT22;2114;50.398;8.814;2022-11-20T20:32:58;4.80;99.90
4201;DHT22;2114;50.398;8.814;2022-11-20T20:37:59;4.80;99.90
4201;DHT22;2114;50.398;8.814;2022-11-20T20:42:59;4.80;99.90
4201;DHT22;2114;50.398;8.814;2022-11-20T20:48:00;4.80;99.90
4201;DHT22;2114;50.398;8.814;2022-11-20T20:53:01;4.80;99.90
4201;DHT22;2114;50.398;8.814;2022-11-20T20:58:01;4.80;99.90
4201;DHT22;2114;50.398;8.814;2022-11-20T21:03:02;4.80;99.90
4201;DHT22;2114;50.398;8.814;2022-11-20T21:08:03;4.90;99.90
4201;DHT22;2114;50.398;8.814;2022-11-20T21:13:22;4.90;99.90
4201;DHT22;2114;50.398;8.814;2022-11-20T21:18:23;4.90;99.90
4201;DHT22;2114;50.398;8.814;2022-11-20T21:23:24;4.90;99.90
4201;DHT22;2114;50.398;8.814;2022-11-20T21:28:24;4.90;99.90
4201;DHT22;2114;50.398;8.814;2022-11-20T21:33:25;4.90;99.90
4201;DHT22;2114;50.398;8.814;2022-11-20T21:38:25;4.90;99.90
4201;DHT22;2114;50.398;8.814;2022-11-20T21:43:26;4.90;99.90
4201;DHT22;2114;50.398;8.814;2022-11-20T21:48:28;4.90;99.90
4201;DHT22;2114;50.398;8.814;2022-11-20T21:53:29;4.90;99.90
4201;DHT22;2114;50.398;8.814;2022-11-20T21:58:30;4.90;99.90
4201;DHT22;2114;50.398;8.814;2022-11-20T22:03:31;4.90;99.90
4201;DHT22;2114;50.398;8.814;2022-11-20T22:08:33;4.90;99.90
4201;DHT22;2114;50.398;8.814;2022-11-20T22:13:35;4.90;99.90
4201;DHT22;2114;50.398;8.814;2022-11-20T22:18:56;4.80;99.90
4201;DHT22;2114;50.398;8.814;2022-11-20T22:23:57;4.80;99.90
4201;DHT22;2114;50.398;8.814;2022-11-20T22:28:58;4.80;99.90
4201;DHT22;2114;50.398;8.814;2022-11-20T22:34:00;4.80;99.90
4201;DHT22;2114;50.398;8.814;2022-11-20T22:39:01;4.80;99.90
4201;DHT22;2114;50.398;8.814;2022-11-20T22:44:04;4.70;99.90
4201;DHT22;2114;50.398;8.814;2022-11-20T22:49:06;4.80;99.90
4201;DHT22;2114;50.398;8.814;2022-11-20T22:54:10;4.80;99.90
4201;DHT22;2114;50.398;8.814;2022-11-20T22:59:11;4.80;99.90
4201;DHT22;2114;50.398;8.814;2022-11-20T23:04:11;4.80;99.90
4201;DHT22;2114;50.398;8.814;2022-11-20T23:09:12;4.80;99.90
4201;DHT22;2114;50.398;8.814;2022-11-20T23:14:14;4.70;99.90
4201;DHT22;2114;50.398;8.814;2022-11-20T23:19:15;4.70;99.90
4201;DHT22;2114;50.398;8.814;2022-11-20T23:24:15;4.80;99.90
4201;DHT22;2114;50.398;8.814;2022-11-20T23:29:16;4.80;99.90
4201;DHT22;2114;50.398;8.814;2022-11-20T23:34:16;4.80;99.90
4201;DHT22;2114;50.398;8.814;2022-11-20T23:39:17;4.70;99.90
4201;DHT22;2114;50.398;8.814;2022-11-20T23:44:18;4.70;99.90
4201;DHT22;2114;50.398;8.814;2022-11-20T23:49:18;4.70;99.90
4201;DHT22;2114;50.398;8.814;2022-11-20T23:54:18;4.70;99.90
4201;DHT22;2114;50.398;8.814;2022-11-20T23:59:19;4.70;99.90
